This is the latest recevied weather packets stored in our database for station/object NO3U. If no packets are shown the sender has not sent any weather packets the latest 10 day(s).
| Time | Temp. | Humidity | Pressure | Rain* | Wind** | Luminosity | Snow |
|---|---|---|---|---|---|---|---|
| 1777925005 | 22.78° C | 47% | 1007.3 hPa | 0 mm | - | 554 W/m² | - |
| 1777924701 | 22.22° C | 47% | 1007.4 hPa | 0 mm | - | 234 W/m² | - |
| 1777924397 | 22.78° C | 48% | 1007.4 hPa | 0 mm | - | 573 W/m² | - |
| 1777924094 | 22.78° C | 46% | 1007.4 hPa | 0 mm | - | 553 W/m² | - |
| 1777923790 | 22.78° C | 45% | 1007.4 hPa | 0 mm | - | 562 W/m² | - |
| 1777923486 | 22.22° C | 48% | 1007.6 hPa | 0 mm | - | 609 W/m² | - |
| 1777923184 | 22.22° C | 47% | 1007.3 hPa | 0 mm | - | 121 W/m² | - |
| 1777922883 | 22.78° C | 47% | 1007.6 hPa | 0 mm | - | 579 W/m² | - |
| 1777922580 | 22.78° C | 51% | 1007.6 hPa | 0 mm | - | 626 W/m² | - |
| 1777922279 | 23.33° C | 45% | 1007.6 hPa | 0 mm | - | 651 W/m² | - |
| 1777921975 | 22.78° C | 47% | 1007.5 hPa | 0 mm | - | 669 W/m² | - |
| 1777921671 | 22.22° C | 47% | 1007.7 hPa | 0 mm | - | 634 W/m² | - |
| 1777921368 | 22.22° C | 47% | 1007.9 hPa | 0 mm | - | 682 W/m² | - |
| 1777921064 | 22.22° C | 48% | 1007.9 hPa | 0 mm | - | 296 W/m² | - |
| 1777920761 | 21.11° C | 49% | 1008.2 hPa | 0 mm | - | 781 W/m² | - |
| 1777920457 | 21.67° C | 47% | 1008 hPa | 0 mm | - | 178 W/m² | - |
| 1777920153 | 21.11° C | 49% | 1008.3 hPa | 0 mm | - | 542 W/m² | - |
| 1777919849 | 21.67° C | 49% | 1008.2 hPa | 0 mm | - | 678 W/m² | - |
| 1777919546 | 21.11° C | 48% | 1008.3 hPa | 0 mm | - | 588 W/m² | - |
| 1777919244 | 21.67° C | 48% | 1008.5 hPa | 0 mm | - | 205 W/m² | - |
| 1777918941 | 21.67° C | 49% | 1008.6 hPa | 0 mm | - | 692 W/m² | - |
| 1777918639 | 22.22° C | 46% | 1008.4 hPa | 0 mm | - | 167 W/m² | - |
| 1777918336 | 21.67° C | 47% | 1008.3 hPa | 0 mm | - | 154 W/m² | - |
| 1777918035 | 21.67° C | 48% | 1008.6 hPa | 0 mm | - | 176 W/m² | - |
| 1777917733 | 21.67° C | 48% | 1008.7 hPa | 0 mm | - | 185 W/m² | - |
* Rain latest hour (hover to see other rain measurements)
** Current wind speed in m/s (hover to see current wind gust speed)